createdAt,value
2018-07-08T00:00:42.199Z,100734.00
2018-07-08T00:05:45.468Z,100734.00
2018-07-08T00:10:53.184Z,100735.00
2018-07-08T00:15:56.519Z,100737.00
2018-07-08T00:20:59.517Z,100741.00
2018-07-08T00:26:02.609Z,100742.00
2018-07-08T00:31:05.763Z,100744.00
2018-07-08T00:36:08.846Z,100737.00
2018-07-08T00:41:12.030Z,100747.00
2018-07-08T00:46:15.324Z,100746.00
2018-07-08T00:51:18.528Z,100747.00
2018-07-08T00:56:21.555Z,100745.00
2018-07-08T01:01:24.839Z,100748.00
2018-07-08T01:06:27.813Z,100748.00
2018-07-08T01:11:30.884Z,100754.00
2018-07-08T01:16:34.166Z,100758.00
2018-07-08T01:21:37.210Z,100754.00
2018-07-08T01:26:40.316Z,100759.00
2018-07-08T01:31:43.575Z,100760.00
2018-07-08T01:36:46.547Z,100762.00
2018-07-08T01:41:49.748Z,100764.00
2018-07-08T01:46:52.770Z,100762.00
2018-07-08T01:51:55.847Z,100779.00
2018-07-08T01:56:59.122Z,100786.00
2018-07-08T02:02:02.132Z,100784.00
2018-07-08T02:07:05.790Z,100785.00
2018-07-08T02:12:09.044Z,100792.00
2018-07-08T02:17:12.328Z,100787.00
2018-07-08T02:22:15.412Z,100780.00
2018-07-08T02:27:18.760Z,100782.00
2018-07-08T02:32:21.832Z,100780.00
2018-07-08T02:37:25.302Z,100782.00
2018-07-08T02:42:28.391Z,100785.00
2018-07-08T02:47:31.492Z,100786.00
2018-07-08T02:52:34.530Z,100791.00
2018-07-08T02:57:37.720Z,100796.00
2018-07-08T03:02:40.735Z,100793.00
2018-07-08T03:07:43.939Z,100792.00
2018-07-08T03:12:47.249Z,100779.00
2018-07-08T03:17:50.264Z,100790.00
2018-07-08T03:22:53.792Z,100785.00
2018-07-08T03:27:56.770Z,100789.00
2018-07-08T03:32:59.736Z,100792.00
2018-07-08T03:38:02.753Z,100785.00
2018-07-08T03:43:06.059Z,100785.00
2018-07-08T03:48:09.100Z,100799.00
2018-07-08T03:53:12.252Z,100793.00
2018-07-08T03:58:15.236Z,100790.00
2018-07-08T04:03:18.252Z,100788.00
2018-07-08T04:08:21.195Z,100796.00
2018-07-08T04:13:24.212Z,100791.00
2018-07-08T04:18:27.194Z,100798.00
2018-07-08T04:23:30.426Z,100797.00
2018-07-08T04:28:33.632Z,100816.00
2018-07-08T04:33:36.855Z,100827.00
2018-07-08T04:38:39.847Z,100836.00
2018-07-08T04:43:42.931Z,100850.00
2018-07-08T04:48:45.848Z,100853.00
2018-07-08T04:53:48.950Z,100863.00
2018-07-08T04:58:52.064Z,100876.00
2018-07-08T05:03:55.027Z,100882.00
2018-07-08T05:08:58.388Z,100887.00
2018-07-08T05:14:01.314Z,100908.00
2018-07-08T05:19:04.357Z,100914.00
2018-07-08T05:24:07.496Z,100912.00
2018-07-08T05:29:10.484Z,100917.00
2018-07-08T05:34:13.710Z,100912.00
2018-07-08T05:39:17.127Z,100906.00
2018-07-08T05:44:20.571Z,100906.00
2018-07-08T05:49:23.544Z,100913.00
2018-07-08T05:54:26.571Z,100905.00
2018-07-08T05:59:29.530Z,100903.00
2018-07-08T06:04:32.672Z,100911.00
2018-07-08T06:09:35.844Z,100891.00
2018-07-08T06:14:38.969Z,100890.00
2018-07-08T06:19:41.956Z,100894.00
2018-07-08T06:24:45.172Z,100894.00
2018-07-08T06:29:48.217Z,100908.00
2018-07-08T06:34:51.217Z,100899.00
2018-07-08T06:39:54.178Z,100908.00
2018-07-08T06:44:57.188Z,100906.00
2018-07-08T06:50:00.159Z,100916.00
2018-07-08T06:55:03.240Z,100910.00
2018-07-08T07:00:06.299Z,100903.00
2018-07-08T07:05:09.348Z,100914.00
2018-07-08T07:10:12.428Z,100918.00
2018-07-08T07:15:15.428Z,100918.00
2018-07-08T07:20:18.456Z,100927.00
2018-07-08T07:25:21.803Z,100921.00
2018-07-08T07:30:24.964Z,100919.00
2018-07-08T07:35:28.157Z,100907.00
2018-07-08T07:40:31.238Z,100911.00
2018-07-08T07:45:34.311Z,100908.00
2018-07-08T07:50:37.236Z,100911.00
2018-07-08T07:55:40.316Z,100903.00
2018-07-08T08:00:43.385Z,100892.00
2018-07-08T08:05:46.330Z,100904.00
2018-07-08T08:10:49.348Z,100896.00
2018-07-08T08:15:52.526Z,100897.00
2018-07-08T08:20:55.581Z,100900.00
2018-07-08T08:25:58.662Z,100891.00
2018-07-08T08:31:01.668Z,100898.00
2018-07-08T08:36:04.722Z,100904.00
2018-07-08T08:41:07.691Z,100901.00
2018-07-08T08:46:10.716Z,100899.00
2018-07-08T08:51:13.685Z,100906.00
2018-07-08T08:56:16.647Z,100902.00
2018-07-08T09:01:19.848Z,100905.00
2018-07-08T09:06:22.954Z,100891.00
2018-07-08T09:11:26.153Z,100889.00
2018-07-08T09:16:29.258Z,100893.00
2018-07-08T09:21:32.292Z,100901.00
2018-07-08T09:26:35.295Z,100897.00
2018-07-08T09:31:38.457Z,100901.00
2018-07-08T09:36:41.529Z,100893.00
2018-07-08T09:41:45.357Z,100897.00
2018-07-08T09:46:48.784Z,100899.00
2018-07-08T09:51:52.456Z,100898.00
2018-07-08T09:56:55.653Z,100899.00
2018-07-08T10:01:58.612Z,100887.00
2018-07-08T10:07:01.603Z,100898.00
2018-07-08T10:12:04.869Z,100885.00
2018-07-08T10:17:08.088Z,100887.00
2018-07-08T10:22:11.094Z,100882.00
2018-07-08T10:27:35.017Z,100879.00
2018-07-08T10:32:38.081Z,100877.00
2018-07-08T10:37:41.169Z,100871.00
2018-07-08T10:42:44.374Z,100881.00
2018-07-08T10:47:47.487Z,100872.00
2018-07-08T10:52:50.587Z,100867.00
2018-07-08T10:57:53.789Z,100872.00
2018-07-08T11:02:57.754Z,100865.00
2018-07-08T11:08:00.868Z,100864.00
2018-07-08T11:13:04.260Z,100857.00
2018-07-08T11:18:07.211Z,100868.00
2018-07-08T11:23:10.369Z,100854.00
2018-07-08T11:28:13.584Z,100857.00
2018-07-08T11:33:16.695Z,100844.00
2018-07-08T11:38:20.013Z,100844.00
2018-07-08T11:43:23.411Z,100837.00
2018-07-08T11:48:26.716Z,100831.00
2018-07-08T11:53:29.712Z,100826.00
2018-07-08T11:58:32.740Z,100830.00
2018-07-08T12:03:36.141Z,100825.00
2018-07-08T12:08:39.264Z,100838.00
2018-07-08T12:13:42.366Z,100844.00
2018-07-08T12:18:45.464Z,100826.00
2018-07-08T12:23:49.136Z,100833.00
2018-07-08T12:28:52.511Z,100824.00
2018-07-08T12:33:55.701Z,100822.00
2018-07-08T12:38:58.755Z,100821.00
2018-07-08T12:44:01.979Z,100814.00
2018-07-08T12:49:05.350Z,100817.00
2018-07-08T12:54:08.456Z,100811.00
2018-07-08T12:59:11.764Z,100810.00
2018-07-08T13:04:14.843Z,100818.00
2018-07-08T13:09:17.941Z,100804.00
2018-07-08T13:14:21.067Z,100805.00
2018-07-08T13:19:24.370Z,100794.00
2018-07-08T13:24:27.587Z,100800.00
2018-07-08T13:29:30.887Z,100801.00
2018-07-08T13:34:33.941Z,100798.00
2018-07-08T13:39:36.995Z,100797.00
2018-07-08T13:44:40.177Z,100793.00
2018-07-08T13:49:43.433Z,100787.00
2018-07-08T13:54:46.456Z,100781.00
2018-07-08T13:59:49.755Z,100773.00
2018-07-08T14:04:53.049Z,100777.00
2018-07-08T14:09:56.245Z,100783.00
2018-07-08T14:14:59.263Z,100774.00
2018-07-08T14:20:02.746Z,100777.00
2018-07-08T14:25:05.790Z,100777.00
2018-07-08T14:30:08.936Z,100771.00
2018-07-08T14:35:12.008Z,100767.00
2018-07-08T14:40:15.056Z,100769.00
2018-07-08T14:45:18.320Z,100773.00
2018-07-08T14:50:21.614Z,100771.00
2018-07-08T14:55:24.679Z,100783.00
2018-07-08T15:00:27.760Z,100773.00
2018-07-08T15:05:31.149Z,100766.00
2018-07-08T15:10:34.192Z,100774.00
2018-07-08T15:15:37.223Z,100766.00
2018-07-08T15:20:40.496Z,100765.00
2018-07-08T15:25:43.474Z,100743.00
2018-07-08T15:30:46.625Z,100752.00
2018-07-08T15:35:49.659Z,100754.00
2018-07-08T15:40:53.315Z,100749.00
2018-07-08T15:45:57.164Z,100748.00
2018-07-08T15:51:00.175Z,100747.00
2018-07-08T15:56:03.426Z,100746.00
2018-07-08T16:01:06.638Z,100748.00
2018-07-08T16:06:09.807Z,100749.00
2018-07-08T16:11:13.128Z,100753.00
2018-07-08T16:16:16.181Z,100740.00
2018-07-08T16:21:19.464Z,100739.00
2018-07-08T16:26:22.524Z,100735.00
2018-07-08T16:31:25.990Z,100744.00
2018-07-08T16:36:29.272Z,100746.00
2018-07-08T16:41:32.481Z,100741.00
2018-07-08T16:46:35.499Z,100737.00
2018-07-08T16:51:38.828Z,100740.00
2018-07-08T16:56:42.313Z,100723.00
2018-07-08T17:01:45.553Z,100726.00
2018-07-08T17:06:48.735Z,100725.00
2018-07-08T17:11:51.928Z,100724.00
2018-07-08T17:16:54.973Z,100725.00
2018-07-08T17:21:58.122Z,100716.00
2018-07-08T17:27:01.075Z,100718.00
2018-07-08T17:32:04.295Z,100721.00
2018-07-08T17:37:07.480Z,100721.00
2018-07-08T17:42:10.861Z,100723.00
2018-07-08T17:47:13.901Z,100715.00
2018-07-08T17:52:17.012Z,100716.00
2018-07-08T17:57:19.940Z,100714.00
2018-07-08T18:02:23.086Z,100717.00
2018-07-08T18:07:26.369Z,100715.00
2018-07-08T18:12:29.403Z,100709.00
2018-07-08T18:17:32.900Z,100719.00
2018-07-08T18:22:35.881Z,100718.00
2018-07-08T18:27:39.102Z,100708.00
2018-07-08T18:32:42.389Z,100719.00
2018-07-08T18:37:45.595Z,100717.00
2018-07-08T18:42:49.041Z,100721.00
2018-07-08T18:47:52.166Z,100723.00
2018-07-08T18:52:55.255Z,100731.00
2018-07-08T18:57:58.638Z,100740.00
2018-07-08T19:03:02.006Z,100733.00
2018-07-08T19:08:05.459Z,100753.00
2018-07-08T19:13:08.740Z,100744.00
2018-07-08T19:18:11.804Z,100745.00
2018-07-08T19:23:14.924Z,100753.00
2018-07-08T19:28:18.047Z,100765.00
2018-07-08T19:33:21.451Z,100758.00
2018-07-08T19:38:24.924Z,100761.00
2018-07-08T19:43:28.102Z,100767.00
2018-07-08T19:48:31.200Z,100765.00
2018-07-08T19:53:34.324Z,100755.00
2018-07-08T19:58:37.528Z,100767.00
2018-07-08T20:03:41.075Z,100764.00
2018-07-08T20:08:44.215Z,100762.00
2018-07-08T20:13:47.583Z,100767.00
2018-07-08T20:18:50.636Z,100763.00
2018-07-08T20:23:53.788Z,100765.00
2018-07-08T20:28:57.073Z,100772.00
2018-07-08T20:34:00.532Z,100769.00
2018-07-08T20:39:04.501Z,100779.00
2018-07-08T20:44:07.764Z,100779.00
2018-07-08T20:49:10.906Z,100778.00
2018-07-08T20:54:14.275Z,100778.00
2018-07-08T20:59:17.658Z,100783.00
2018-07-08T21:04:21.716Z,100774.00
2018-07-08T21:09:24.928Z,100767.00
2018-07-08T21:14:28.008Z,100773.00
2018-07-08T21:19:31.196Z,100765.00
2018-07-08T21:24:34.395Z,100762.00
2018-07-08T21:29:37.481Z,100769.00
2018-07-08T21:34:40.772Z,100769.00
2018-07-08T21:39:43.843Z,100761.00
2018-07-08T21:44:47.097Z,100755.00
2018-07-08T21:49:50.288Z,100761.00
2018-07-08T21:54:53.621Z,100764.00
2018-07-08T21:59:56.652Z,100760.00
2018-07-08T22:04:59.815Z,100763.00
2018-07-08T22:10:03.155Z,100768.00
2018-07-08T22:15:06.249Z,100764.00
2018-07-08T22:20:09.457Z,100761.00
2018-07-08T22:25:12.528Z,100763.00
2018-07-08T22:30:15.760Z,100758.00
2018-07-08T22:35:18.850Z,100761.00
2018-07-08T22:40:22.064Z,100758.00
2018-07-08T22:45:25.096Z,100752.00
2018-07-08T22:50:28.388Z,100749.00
2018-07-08T22:55:31.703Z,100743.00
2018-07-08T23:00:52.036Z,100738.00
2018-07-08T23:05:55.303Z,100742.00
2018-07-08T23:10:58.528Z,100740.00
2018-07-08T23:16:01.572Z,100736.00
2018-07-08T23:21:04.944Z,100737.00
2018-07-08T23:26:08.165Z,100738.00
2018-07-08T23:31:11.740Z,100737.00
2018-07-08T23:36:14.939Z,100724.00
2018-07-08T23:41:18.191Z,100735.00
2018-07-08T23:46:21.336Z,100730.00
2018-07-08T23:51:24.414Z,100724.00
2018-07-08T23:56:29.335Z,100725.00
